Time;durP1;ratioP1;P1;durP2;ratioP2;P2;SDS_P1;SDS_P2;PMS_P1;PMS_P2;Temp;Humidity;BMP_temperature;BMP_pressure;BME280_temperature;BME280_humidity;BME280_pressure;Samples;Min_cycle;Max_cycle;Signal;HPM_P1;HPM_P2
2021/12/06 00:00:33;;;;;;;46.97;19.80;;;;;;;;;;6317446;28;20043;-67
2021/12/06 00:03:41;;;;;;;42.00;19.10;;;;;;;;;;6317774;28;20056;-66
2021/12/06 00:06:46;;;;;;;45.45;18.88;;;;;;;;;;6317910;28;20055;-67
2021/12/06 00:09:51;;;;;;;42.20;19.17;;;;;;;;;;6316802;28;20051;-68
2021/12/06 00:12:54;;;;;;;42.03;18.27;;;;;;;;;;6331998;28;20043;-67
2021/12/06 00:15:59;;;;;;;40.58;18.58;;;;;;;;;;6340379;28;20112;-67
2021/12/06 00:19:02;;;;;;;46.08;19.30;;;;;;;;;;6341644;28;20072;-67
2021/12/06 00:22:06;;;;;;;41.30;18.25;;;;;;;;;;6339497;28;20116;-67
2021/12/06 00:25:09;;;;;;;40.42;17.45;;;;;;;;;;6340054;28;20500;-67
2021/12/06 00:28:13;;;;;;;38.28;18.75;;;;;;;;;;6341496;28;20108;-67
2021/12/06 00:31:17;;;;;;;45.47;19.42;;;;;;;;;;6340687;28;20047;-67
2021/12/06 00:34:21;;;;;;;39.65;17.70;;;;;;;;;;6340727;28;20096;-67
2021/12/06 00:37:33;;;;;;;42.35;18.88;;;;;;;;;;6338398;28;20071;-67
2021/12/06 00:40:38;;;;;;;42.85;19.15;;;;;;;;;;6342540;27;20054;-67
2021/12/06 00:43:40;;;;;;;41.63;18.85;;;;;;;;;;6341775;28;20049;-66
2021/12/06 00:46:47;;;;;;;49.65;21.17;;;;;;;;;;6340746;28;20051;-67
2021/12/06 00:49:54;;;;;;;48.80;18.52;;;;;;;;;;6341435;28;20054;-66
2021/12/06 00:52:57;;;;;;;43.50;18.50;;;;;;;;;;6342409;28;20060;-66
2021/12/06 00:56:00;;;;;;;40.80;18.38;;;;;;;;;;6341662;28;20398;-66
2021/12/06 00:59:05;;;;;;;41.90;19.15;;;;;;;;;;6340801;28;20048;-66
2021/12/06 01:02:13;;;;;;;50.90;20.23;;;;;;;;;;6342702;28;20061;-66
2021/12/06 01:05:17;;;;;;;47.47;18.98;;;;;;;;;;6340790;28;20052;-66
2021/12/06 01:08:20;;;;;;;43.17;19.13;;;;;;;;;;6342242;28;20138;-66
2021/12/06 01:11:24;;;;;;;41.58;19.02;;;;;;;;;;6342314;28;20047;-66
2021/12/06 01:14:27;;;;;;;43.05;17.23;;;;;;;;;;6341132;28;20058;-66
2021/12/06 01:17:31;;;;;;;35.03;17.10;;;;;;;;;;6341579;28;20108;-67
2021/12/06 01:20:40;;;;;;;37.58;17.95;;;;;;;;;;6340668;28;20506;-67
2021/12/06 01:23:52;;;;;;;43.80;17.73;;;;;;;;;;6341457;28;20112;-67
2021/12/06 01:27:09;;;;;;;33.42;17.02;;;;;;;;;;6340141;28;20058;-66
2021/12/06 01:30:28;;;;;;;33.53;17.42;;;;;;;;;;6341666;28;20043;-67
2021/12/06 01:34:05;;;;;;;38.47;16.40;;;;;;;;;;6340793;28;20173;-66
2021/12/06 01:40:31;;;;;;;32.30;15.60;;;;;;;;;;6340662;28;20406;-66
2021/12/06 01:43:35;;;;;;;31.90;15.85;;;;;;;;;;6341005;28;20044;-67
2021/12/06 01:46:41;;;;;;;31.95;14.75;;;;;;;;;;6340127;28;20132;-67
2021/12/06 01:49:45;;;;;;;;;;;;;;;;;;6341388;28;20044;-66
2021/12/06 01:52:52;;;;;;;27.58;14.45;;;;;;;;;;6343404;28;19920;-66
2021/12/06 01:55:56;;;;;;;27.45;14.07;;;;;;;;;;6344934;28;20073;-66
2021/12/06 01:58:59;;;;;;;24.40;12.30;;;;;;;;;;6344966;28;20052;-66
2021/12/06 02:02:04;;;;;;;;;;;;;;;;;;6345478;28;20051;-66
2021/12/06 02:05:08;;;;;;;28.20;13.88;;;;;;;;;;6344361;28;19925;-67
2021/12/06 02:08:12;;;;;;;28.02;13.77;;;;;;;;;;6344506;28;20047;-66
2021/12/06 02:11:16;;;;;;;31.00;14.07;;;;;;;;;;6346685;28;20032;-66
2021/12/06 02:14:29;;;;;;;27.45;13.73;;;;;;;;;;6343714;28;20043;-66
2021/12/06 02:17:36;;;;;;;26.75;13.27;;;;;;;;;;6344319;28;20047;-66
2021/12/06 02:20:47;;;;;;;29.83;14.48;;;;;;;;;;6344433;28;20413;-66
2021/12/06 02:23:54;;;;;;;24.45;12.95;;;;;;;;;;6344677;28;20482;-66
2021/12/06 02:26:58;;;;;;;25.77;13.75;;;;;;;;;;6343674;28;20413;-66
2021/12/06 02:30:04;;;;;;;27.10;13.52;;;;;;;;;;6344087;28;20077;-66
2021/12/06 02:33:07;;;;;;;24.23;12.40;;;;;;;;;;6344467;28;20051;-66
2021/12/06 02:36:10;;;;;;;26.55;13.35;;;;;;;;;;6344912;28;20054;-66
2021/12/06 02:39:21;;;;;;;26.92;13.20;;;;;;;;;;6345181;28;20050;-66
2021/12/06 02:42:24;;;;;;;24.60;13.23;;;;;;;;;;6345526;28;20044;-66
2021/12/06 02:45:29;;;;;;;22.48;11.93;;;;;;;;;;6343983;28;20051;-66
2021/12/06 02:48:32;;;;;;;24.52;12.75;;;;;;;;;;6342844;28;20070;-67
2021/12/06 02:51:35;;;;;;;23.48;12.98;;;;;;;;;;6343614;28;20069;-66
2021/12/06 02:54:41;;;;;;;22.42;11.25;;;;;;;;;;6343988;28;20051;-67
2021/12/06 02:57:46;;;;;;;;;;;;;;;;;;6343523;28;20402;-66
2021/12/06 03:00:53;;;;;;;21.75;10.73;;;;;;;;;;6343436;28;19967;-67
2021/12/06 03:03:57;;;;;;;23.70;11.27;;;;;;;;;;6343210;28;20466;-66
2021/12/06 03:07:01;;;;;;;22.70;11.40;;;;;;;;;;6343570;28;20047;-66
2021/12/06 03:10:07;;;;;;;22.05;11.98;;;;;;;;;;6342879;28;20397;-67
2021/12/06 03:13:09;;;;;;;22.20;11.45;;;;;;;;;;6344314;28;20551;-67
2021/12/06 03:16:15;;;;;;;21.83;11.27;;;;;;;;;;6343525;28;20096;-68
2021/12/06 03:19:19;;;;;;;23.25;10.18;;;;;;;;;;6342299;28;20542;-68
2021/12/06 03:22:22;;;;;;;23.52;11.80;;;;;;;;;;6344234;28;20364;-67
2021/12/06 03:25:31;;;;;;;19.00;10.20;;;;;;;;;;6342929;28;20044;-68
2021/12/06 03:28:35;;;;;;;21.15;11.35;;;;;;;;;;6342912;28;20040;-66
2021/12/06 03:31:39;;;;;;;24.83;11.47;;;;;;;;;;6342298;28;20478;-66
2021/12/06 03:34:44;;;;;;;18.90;10.77;;;;;;;;;;6342588;28;20287;-67
2021/12/06 03:37:48;;;;;;;18.80;10.75;;;;;;;;;;6342920;28;20208;-67
2021/12/06 03:40:53;;;;;;;19.52;9.98;;;;;;;;;;6341785;28;20047;-66
2021/12/06 03:43:57;;;;;;;18.02;9.40;;;;;;;;;;6342398;28;20184;-66
2021/12/06 03:47:04;;;;;;;19.05;10.40;;;;;;;;;;6343598;28;20113;-66
2021/12/06 03:50:08;;;;;;;18.50;10.40;;;;;;;;;;6343549;27;20409;-66
2021/12/06 03:53:14;;;;;;;18.42;10.48;;;;;;;;;;6341748;28;20043;-67
2021/12/06 03:56:18;;;;;;;16.23;8.88;;;;;;;;;;6342044;28;20486;-67
2021/12/06 03:59:21;;;;;;;14.82;8.27;;;;;;;;;;6342430;28;20058;-67
2021/12/06 04:02:27;;;;;;;;;;;;;;;;;;6341758;28;20126;-67
2021/12/06 04:05:30;;;;;;;15.93;9.25;;;;;;;;;;6342013;28;19919;-67
2021/12/06 04:08:34;;;;;;;15.95;8.73;;;;;;;;;;6341859;28;20432;-67
2021/12/06 04:11:40;;;;;;;12.80;8.15;;;;;;;;;;6342923;28;20054;-67
2021/12/06 04:14:47;;;;;;;12.95;7.93;;;;;;;;;;6340922;28;20043;-67
2021/12/06 04:17:54;;;;;;;13.30;7.50;;;;;;;;;;6341710;28;20100;-67
2021/12/06 04:21:01;;;;;;;16.02;7.93;;;;;;;;;;6341987;28;20370;-67
2021/12/06 04:24:05;;;;;;;11.93;7.03;;;;;;;;;;6340700;28;20436;-67
2021/12/06 04:27:14;;;;;;;11.23;6.40;;;;;;;;;;6342918;28;20047;-67
2021/12/06 04:30:19;;;;;;;9.82;6.15;;;;;;;;;;6341572;28;20063;-67
2021/12/06 04:33:22;;;;;;;9.98;6.15;;;;;;;;;;6341319;28;20050;-67
2021/12/06 04:36:25;;;;;;;9.43;5.95;;;;;;;;;;6340885;28;20047;-67
2021/12/06 04:39:28;;;;;;;7.35;5.18;;;;;;;;;;6341460;28;20043;-67
2021/12/06 04:42:34;;;;;;;10.98;5.38;;;;;;;;;;6341533;28;20172;-67
2021/12/06 04:45:38;;;;;;;10.25;5.63;;;;;;;;;;6340425;28;20054;-67
2021/12/06 04:48:43;;;;;;;8.43;5.50;;;;;;;;;;6341076;28;20498;-67
2021/12/06 04:51:49;;;;;;;8.25;5.20;;;;;;;;;;6341527;28;20055;-67
2021/12/06 04:54:55;;;;;;;9.20;5.68;;;;;;;;;;6340798;28;20044;-67
2021/12/06 04:57:59;;;;;;;7.22;5.07;;;;;;;;;;6340755;28;20051;-67
2021/12/06 05:01:05;;;;;;;7.57;5.30;;;;;;;;;;6340636;28;20054;-67
2021/12/06 05:04:12;;;;;;;7.47;5.13;;;;;;;;;;6341399;28;20055;-67
2021/12/06 05:07:17;;;;;;;7.03;4.78;;;;;;;;;;6340116;28;20474;-66
2021/12/06 05:10:20;;;;;;;7.43;4.63;;;;;;;;;;6340913;28;20445;-66
2021/12/06 05:13:25;;;;;;;8.23;5.15;;;;;;;;;;6340855;28;20054;-67
2021/12/06 05:16:29;;;;;;;8.27;5.25;;;;;;;;;;6340637;28;20052;-66
2021/12/06 05:19:33;;;;;;;8.18;5.13;;;;;;;;;;6340404;28;20043;-67
2021/12/06 05:22:41;;;;;;;8.25;4.78;;;;;;;;;;6340643;28;20063;-67
2021/12/06 05:25:44;;;;;;;5.75;4.18;;;;;;;;;;6344710;28;20059;-67
2021/12/06 05:28:50;;;;;;;7.43;5.03;;;;;;;;;;6344899;28;20074;-67
2021/12/06 05:31:55;;;;;;;9.85;5.60;;;;;;;;;;6345725;28;20044;-67
2021/12/06 05:35:03;;;;;;;8.80;5.32;;;;;;;;;;6345681;28;20054;-67
2021/12/06 05:38:09;;;;;;;7.75;5.15;;;;;;;;;;6345222;28;20161;-66
2021/12/06 05:41:12;;;;;;;8.68;5.18;;;;;;;;;;6345090;28;20051;-67
2021/12/06 05:44:16;;;;;;;7.22;5.05;;;;;;;;;;6346734;28;20047;-67
2021/12/06 05:47:19;;;;;;;9.15;5.70;;;;;;;;;;6346587;28;20189;-67
2021/12/06 05:50:23;;;;;;;8.02;5.60;;;;;;;;;;6346026;28;20040;-68
2021/12/06 05:53:26;;;;;;;9.93;5.95;;;;;;;;;;6346474;28;20371;-68
2021/12/06 05:56:30;;;;;;;11.65;6.57;;;;;;;;;;6345292;28;20043;-68
2021/12/06 05:59:35;;;;;;;12.55;7.03;;;;;;;;;;6345909;28;20059;-68
2021/12/06 06:02:41;;;;;;;12.48;7.13;;;;;;;;;;6346061;28;20051;-67
2021/12/06 06:05:44;;;;;;;11.10;6.97;;;;;;;;;;6345913;28;20061;-67
2021/12/06 06:08:47;;;;;;;13.55;8.15;;;;;;;;;;6346224;28;20074;-67
2021/12/06 06:11:52;;;;;;;11.70;7.27;;;;;;;;;;6343964;28;20047;-67
2021/12/06 06:14:57;;;;;;;12.15;7.85;;;;;;;;;;6345799;28;20044;-67
2021/12/06 06:18:00;;;;;;;15.05;8.40;;;;;;;;;;6346665;28;20073;-67
2021/12/06 06:21:05;;;;;;;15.05;8.93;;;;;;;;;;6344987;28;20046;-67
2021/12/06 06:24:08;;;;;;;14.38;9.35;;;;;;;;;;6345716;28;20464;-67
2021/12/06 06:27:11;;;;;;;18.23;10.57;;;;;;;;;;6344134;28;20047;-67
2021/12/06 06:30:23;;;;;;;16.55;10.35;;;;;;;;;;6345562;28;20043;-67
2021/12/06 06:33:26;;;;;;;18.67;10.73;;;;;;;;;;6344728;28;20044;-67
2021/12/06 06:36:30;;;;;;;16.42;9.95;;;;;;;;;;6343282;28;20044;-68
2021/12/06 06:39:33;;;;;;;21.80;11.63;;;;;;;;;;6345473;28;20055;-67
2021/12/06 06:42:38;;;;;;;18.40;10.88;;;;;;;;;;6344490;28;20441;-68
2021/12/06 06:45:48;;;;;;;20.15;11.50;;;;;;;;;;6345173;28;20052;-68
2021/12/06 06:48:50;;;;;;;21.05;11.20;;;;;;;;;;6344695;28;20062;-68
2021/12/06 06:51:53;;;;;;;20.65;11.80;;;;;;;;;;6343621;28;20052;-67
2021/12/06 06:54:56;;;;;;;20.23;11.63;;;;;;;;;;6344441;28;20070;-67
2021/12/06 06:58:02;;;;;;;21.95;11.18;;;;;;;;;;6343423;28;20040;-67
2021/12/06 07:01:06;;;;;;;21.02;12.27;;;;;;;;;;6343722;28;20124;-67
2021/12/06 07:04:09;;;;;;;20.48;12.32;;;;;;;;;;6344025;28;20052;-66
2021/12/06 07:07:12;;;;;;;26.42;12.68;;;;;;;;;;6344637;28;20040;-66
2021/12/06 07:10:17;;;;;;;22.20;12.37;;;;;;;;;;6343328;28;20055;-67
2021/12/06 07:13:21;;;;;;;22.23;12.40;;;;;;;;;;6342745;28;20091;-67
2021/12/06 07:16:27;;;;;;;18.98;11.70;;;;;;;;;;6343976;28;20409;-68
2021/12/06 07:19:30;;;;;;;19.33;11.32;;;;;;;;;;6344222;28;20047;-67
2021/12/06 07:22:33;;;;;;;21.77;12.43;;;;;;;;;;6344581;28;20123;-67
2021/12/06 07:25:36;;;;;;;19.90;11.68;;;;;;;;;;6343252;28;20085;-67
2021/12/06 07:28:43;;;;;;;33.03;17.20;;;;;;;;;;6344192;28;20051;-70
2021/12/06 07:31:47;;;;;;;68.90;28.70;;;;;;;;;;6342694;28;20054;-67
2021/12/06 07:34:55;;;;;;;47.03;22.70;;;;;;;;;;6342178;28;20052;-67
2021/12/06 07:37:58;;;;;;;56.88;25.33;;;;;;;;;;6342240;28;20043;-66
2021/12/06 07:41:06;;;;;;;74.85;35.63;;;;;;;;;;6342260;28;20122;-67
2021/12/06 07:44:09;;;;;;;44.65;23.80;;;;;;;;;;6343981;28;20035;-67
2021/12/06 07:47:14;;;;;;;43.05;23.33;;;;;;;;;;6342766;28;20509;-67
2021/12/06 07:50:18;;;;;;;38.05;21.63;;;;;;;;;;6343191;28;20047;-70
2021/12/06 07:53:22;;;;;;;26.15;14.38;;;;;;;;;;6343522;28;20100;-67
2021/12/06 07:56:26;;;;;;;39.65;21.95;;;;;;;;;;6341631;28;20599;-68
2021/12/06 07:59:30;;;;;;;35.47;18.33;;;;;;;;;;6341981;28;20336;-67
2021/12/06 08:02:35;;;;;;;30.42;17.73;;;;;;;;;;6343313;28;20134;-67
2021/12/06 08:05:39;;;;;;;26.83;14.93;;;;;;;;;;6343478;28;20044;-67
2021/12/06 08:08:43;;;;;;;22.45;12.48;;;;;;;;;;6342800;28;20050;-67
2021/12/06 08:11:46;;;;;;;26.55;14.43;;;;;;;;;;6343109;28;20443;-67
2021/12/06 08:14:49;;;;;;;25.23;13.82;;;;;;;;;;6343460;28;20053;-68
2021/12/06 08:17:59;;;;;;;25.15;13.93;;;;;;;;;;6341146;28;20096;-67
2021/12/06 08:21:02;;;;;;;25.65;14.23;;;;;;;;;;6342782;28;20051;-68
2021/12/06 08:24:06;;;;;;;55.80;25.85;;;;;;;;;;6342652;28;20477;-68
2021/12/06 08:27:09;;;;;;;23.83;13.68;;;;;;;;;;6341582;28;20130;-67
2021/12/06 08:30:16;;;;;;;25.35;13.82;;;;;;;;;;6340856;28;20044;-67
2021/12/06 08:33:23;;;;;;;24.98;14.52;;;;;;;;;;6342895;28;20035;-67
2021/12/06 08:36:29;;;;;;;24.83;13.77;;;;;;;;;;6342390;28;20039;-67
2021/12/06 08:39:31;;;;;;;25.30;14.00;;;;;;;;;;6341621;28;20055;-68
2021/12/06 08:42:34;;;;;;;26.33;14.60;;;;;;;;;;6342048;28;20085;-68
2021/12/06 08:45:37;;;;;;;28.25;14.60;;;;;;;;;;6340272;28;20047;-68
2021/12/06 08:48:43;;;;;;;26.60;14.38;;;;;;;;;;6339330;28;20052;-68
2021/12/06 08:51:49;;;;;;;26.23;14.85;;;;;;;;;;6337780;28;20066;-68
2021/12/06 08:54:52;;;;;;;28.92;15.05;;;;;;;;;;6340094;28;20039;-69
2021/12/06 08:57:55;;;;;;;29.50;15.73;;;;;;;;;;6338502;28;20180;-68
2021/12/06 09:00:58;;;;;;;32.47;16.25;;;;;;;;;;6338633;28;20044;-68
2021/12/06 09:04:03;;;;;;;28.63;15.18;;;;;;;;;;6342293;28;20058;-68
2021/12/06 09:07:11;;;;;;;34.37;14.80;;;;;;;;;;6341713;28;20043;-68
2021/12/06 09:10:14;;;;;;;27.48;15.27;;;;;;;;;;6342271;28;20074;-68
2021/12/06 09:13:18;;;;;;;27.30;14.30;;;;;;;;;;6340328;28;20705;-68
2021/12/06 09:16:21;;;;;;;28.42;14.27;;;;;;;;;;6340505;28;20044;-69
2021/12/06 09:19:25;;;;;;;29.52;16.23;;;;;;;;;;6342349;28;20097;-68
2021/12/06 09:22:28;;;;;;;33.15;17.17;;;;;;;;;;6341145;28;20501;-68
2021/12/06 09:25:31;;;;;;;29.10;15.05;;;;;;;;;;6342133;28;20093;-68
2021/12/06 09:28:34;;;;;;;32.10;17.05;;;;;;;;;;6342000;28;20366;-68
2021/12/06 09:31:38;;;;;;;27.67;15.98;;;;;;;;;;6340225;28;20096;-68
2021/12/06 09:34:46;;;;;;;29.10;16.77;;;;;;;;;;6341807;28;20043;-68
2021/12/06 09:37:49;;;;;;;27.45;15.30;;;;;;;;;;6340757;28;20048;-68
2021/12/06 09:40:56;;;;;;;29.50;16.58;;;;;;;;;;6342068;28;20118;-68
2021/12/06 09:44:01;;;;;;;23.67;13.63;;;;;;;;;;6340996;28;20043;-68
2021/12/06 09:47:05;;;;;;;22.85;13.23;;;;;;;;;;6341761;28;20056;-68
2021/12/06 09:50:10;;;;;;;23.85;13.73;;;;;;;;;;6340550;28;20529;-68
2021/12/06 09:53:14;;;;;;;20.95;12.77;;;;;;;;;;6339915;28;20442;-68
2021/12/06 09:56:23;;;;;;;21.00;12.07;;;;;;;;;;6341556;28;20044;-68
2021/12/06 09:59:26;;;;;;;21.90;12.80;;;;;;;;;;6341393;28;20281;-68
2021/12/06 10:02:30;;;;;;;20.88;13.15;;;;;;;;;;6341727;28;20082;-68
2021/12/06 10:05:36;;;;;;;21.05;13.40;;;;;;;;;;6340965;28;20501;-68
2021/12/06 10:08:42;;;;;;;23.85;13.40;;;;;;;;;;6340227;28;20085;-68
2021/12/06 10:11:45;;;;;;;23.23;14.00;;;;;;;;;;6343222;28;20100;-68
2021/12/06 10:14:48;;;;;;;22.38;13.77;;;;;;;;;;6344420;28;20092;-68
2021/12/06 10:17:51;;;;;;;27.70;15.13;;;;;;;;;;6345962;27;20044;-68
2021/12/06 10:20:55;;;;;;;22.35;13.98;;;;;;;;;;6345752;28;20481;-68
2021/12/06 10:23:59;;;;;;;23.50;13.48;;;;;;;;;;6345716;28;20134;-68
2021/12/06 10:27:03;;;;;;;22.38;13.43;;;;;;;;;;6343731;28;20406;-68
2021/12/06 10:30:08;;;;;;;22.05;13.95;;;;;;;;;;6345727;28;20047;-68
2021/12/06 10:33:15;;;;;;;25.77;14.30;;;;;;;;;;6345795;28;20096;-68
2021/12/06 10:36:24;;;;;;;25.60;13.60;;;;;;;;;;6345500;28;20043;-68
2021/12/06 10:39:27;;;;;;;23.67;13.90;;;;;;;;;;6345528;28;20044;-68
2021/12/06 10:42:31;;;;;;;22.00;14.10;;;;;;;;;;6344941;28;20043;-67
2021/12/06 10:45:35;;;;;;;24.23;15.05;;;;;;;;;;6335623;28;20121;-68
2021/12/06 10:48:38;;;;;;;21.05;12.60;;;;;;;;;;6326913;28;20055;-69
2021/12/06 10:51:43;;;;;;;25.77;13.20;;;;;;;;;;6335190;28;20047;-69
2021/12/06 10:54:51;;;;;;;20.60;12.40;;;;;;;;;;6331046;28;20101;-67
2021/12/06 10:57:55;;;;;;;19.55;12.25;;;;;;;;;;6339542;28;20051;-68
2021/12/06 11:01:04;;;;;;;18.92;10.63;;;;;;;;;;6319832;28;20066;-66
2021/12/06 11:04:11;;;;;;;19.73;11.38;;;;;;;;;;6319017;28;20040;-67
2021/12/06 11:07:16;;;;;;;22.55;12.20;;;;;;;;;;6333818;28;20044;-67
2021/12/06 11:10:24;;;;;;;17.60;11.25;;;;;;;;;;6327589;28;20039;-67
2021/12/06 11:13:28;;;;;;;19.90;12.80;;;;;;;;;;6328436;28;20039;-66
2021/12/06 11:16:35;;;;;;;18.65;12.02;;;;;;;;;;6335415;28;20089;-67
2021/12/06 11:19:38;;;;;;;18.70;12.20;;;;;;;;;;6329963;28;20051;-67
2021/12/06 11:22:42;;;;;;;22.48;13.07;;;;;;;;;;6344312;28;20047;-67
2021/12/06 11:25:54;;;;;;;21.13;12.32;;;;;;;;;;6326600;28;20036;-68
2021/12/06 11:29:02;;;;;;;21.85;12.70;;;;;;;;;;6320617;28;20411;-67
2021/12/06 11:32:10;;;;;;;19.25;12.15;;;;;;;;;;6316437;28;20043;-66
2021/12/06 11:35:15;;;;;;;22.63;13.98;;;;;;;;;;6318817;28;20449;-67
2021/12/06 11:38:20;;;;;;;17.40;11.13;;;;;;;;;;6317332;28;20051;-67
2021/12/06 11:41:25;;;;;;;18.15;11.40;;;;;;;;;;6316210;28;20149;-67
2021/12/06 11:44:30;;;;;;;19.27;12.48;;;;;;;;;;6315401;28;20048;-68
2021/12/06 11:47:33;;;;;;;20.67;12.18;;;;;;;;;;6315183;28;20063;-67
2021/12/06 11:50:39;;;;;;;16.08;10.80;;;;;;;;;;6314215;28;20058;-66
2021/12/06 11:53:46;;;;;;;17.83;11.40;;;;;;;;;;6314615;28;20137;-66
2021/12/06 11:56:52;;;;;;;18.40;10.80;;;;;;;;;;6315122;28;20051;-67
2021/12/06 11:59:57;;;;;;;16.30;10.45;;;;;;;;;;6316544;28;20051;-68
2021/12/06 12:03:03;;;;;;;17.02;10.80;;;;;;;;;;6317257;28;20092;-68
2021/12/06 12:06:21;;;;;;;17.15;10.85;;;;;;;;;;6317964;28;20448;-68
2021/12/06 12:09:26;;;;;;;17.30;10.85;;;;;;;;;;6317916;28;20044;-68
2021/12/06 12:12:29;;;;;;;16.23;10.55;;;;;;;;;;6323254;28;20405;-68
2021/12/06 12:15:38;;;;;;;14.10;9.00;;;;;;;;;;6335009;28;20050;-68
2021/12/06 12:18:44;;;;;;;17.38;9.93;;;;;;;;;;6336102;28;20088;-67
2021/12/06 12:21:46;;;;;;;14.65;9.00;;;;;;;;;;6335953;28;20043;-68
2021/12/06 12:24:58;;;;;;;18.33;10.65;;;;;;;;;;6336261;28;20108;-68
2021/12/06 12:28:11;;;;;;;14.30;8.68;;;;;;;;;;6334392;28;20474;-68
2021/12/06 12:31:15;;;;;;;13.52;9.10;;;;;;;;;;6336091;28;20520;-68
2021/12/06 12:34:18;;;;;;;18.42;8.93;;;;;;;;;;6335943;28;20474;-68
2021/12/06 12:37:23;;;;;;;19.02;10.27;;;;;;;;;;6332873;28;20465;-67
2021/12/06 12:40:29;;;;;;;16.90;9.32;;;;;;;;;;6335961;28;20047;-67
2021/12/06 12:43:36;;;;;;;17.73;9.25;;;;;;;;;;6334791;28;20482;-68
2021/12/06 12:46:41;;;;;;;14.18;8.15;;;;;;;;;;6335431;28;20035;-68
2021/12/06 12:49:46;;;;;;;13.27;7.95;;;;;;;;;;6335551;28;20063;-68
2021/12/06 12:52:59;;;;;;;13.18;7.88;;;;;;;;;;6318969;28;20069;-68
2021/12/06 12:56:16;;;;;;;14.93;9.00;;;;;;;;;;6335699;28;20047;-68
2021/12/06 12:59:28;;;;;;;15.00;9.75;;;;;;;;;;6334618;28;20047;-69
2021/12/06 13:02:33;;;;;;;17.38;9.50;;;;;;;;;;6335428;28;20056;-68
2021/12/06 13:05:37;;;;;;;;;;;;;;;;;;6335862;28;20052;-69
2021/12/06 13:08:40;;;;;;;16.77;8.73;;;;;;;;;;6336235;28;20263;-68
2021/12/06 13:12:00;;;;;;;13.80;8.13;;;;;;;;;;6335511;28;20288;-68
2021/12/06 13:15:13;;;;;;;15.77;8.63;;;;;;;;;;6319504;28;20051;-68
2021/12/06 13:18:37;;;;;;;15.05;8.57;;;;;;;;;;6335822;28;20088;-68
2021/12/06 13:21:45;;;;;;;15.52;8.70;;;;;;;;;;6335754;28;20051;-68
2021/12/06 13:24:58;;;;;;;13.07;7.80;;;;;;;;;;6334313;28;20047;-68
2021/12/06 13:28:06;;;;;;;14.70;7.72;;;;;;;;;;6335658;28;20043;-68
2021/12/06 13:31:11;;;;;;;28.45;8.40;;;;;;;;;;6335186;28;20088;-68
2021/12/06 13:34:17;;;;;;;12.15;7.60;;;;;;;;;;6333830;28;20040;-68
2021/12/06 13:37:25;;;;;;;17.05;7.30;;;;;;;;;;6334725;28;20054;-68
2021/12/06 13:40:29;;;;;;;12.73;7.32;;;;;;;;;;6335234;28;20039;-68
2021/12/06 13:43:33;;;;;;;13.57;7.65;;;;;;;;;;6335436;28;20047;-68
2021/12/06 13:46:39;;;;;;;13.88;7.78;;;;;;;;;;6335262;28;20031;-68
2021/12/06 13:49:56;;;;;;;14.52;8.50;;;;;;;;;;6341367;28;20389;-68
2021/12/06 13:53:00;;;;;;;14.30;8.10;;;;;;;;;;6323443;28;20077;-68
2021/12/06 13:56:05;;;;;;;14.43;7.88;;;;;;;;;;6340740;28;20050;-68
2021/12/06 13:59:08;;;;;;;17.52;7.88;;;;;;;;;;6339379;28;20044;-68
2021/12/06 14:02:14;;;;;;;;;;;;;;;;;;6340003;28;20043;-68
2021/12/06 14:05:19;;;;;;;13.07;8.02;;;;;;;;;;6339289;28;19935;-69
2021/12/06 14:08:23;;;;;;;29.27;15.55;;;;;;;;;;6337600;28;20441;-69
2021/12/06 14:11:27;;;;;;;15.70;7.72;;;;;;;;;;6339376;28;20117;-69
2021/12/06 14:14:35;;;;;;;14.70;7.65;;;;;;;;;;6340110;28;20055;-68
2021/12/06 14:17:43;;;;;;;13.30;8.18;;;;;;;;;;6340545;28;20058;-69
2021/12/06 14:20:49;;;;;;;14.23;7.60;;;;;;;;;;6339361;28;20055;-69
2021/12/06 14:23:55;;;;;;;17.48;9.00;;;;;;;;;;6339644;28;20115;-68
2021/12/06 14:26:59;;;;;;;10.95;7.15;;;;;;;;;;6322912;28;20051;-69
2021/12/06 14:30:04;;;;;;;14.68;7.03;;;;;;;;;;6337101;28;20066;-68
2021/12/06 14:33:07;;;;;;;11.00;7.03;;;;;;;;;;6338803;28;20058;-69
2021/12/06 14:36:15;;;;;;;10.75;6.57;;;;;;;;;;6339186;27;20054;-69
2021/12/06 14:39:39;;;;;;;10.90;6.45;;;;;;;;;;6338724;28;20058;-69
2021/12/06 14:42:42;;;;;;;13.10;7.05;;;;;;;;;;6337662;28;20036;-68
2021/12/06 14:45:46;;;;;;;14.25;7.25;;;;;;;;;;6338381;28;20554;-69
2021/12/06 14:48:51;;;;;;;13.38;7.35;;;;;;;;;;6337885;28;20099;-69
2021/12/06 14:51:57;;;;;;;13.30;6.70;;;;;;;;;;6338044;28;20052;-68
2021/12/06 14:55:09;;;;;;;15.30;8.02;;;;;;;;;;6322274;28;20078;-69
2021/12/06 14:58:14;;;;;;;15.00;7.53;;;;;;;;;;6337640;28;20126;-70
2021/12/06 15:01:23;;;;;;;15.32;7.70;;;;;;;;;;6338447;28;20572;-69
2021/12/06 15:04:37;;;;;;;14.10;7.68;;;;;;;;;;6338570;28;20055;-69
2021/12/06 15:07:48;;;;;;;16.40;8.07;;;;;;;;;;6339194;28;20046;-68
2021/12/06 15:10:53;;;;;;;14.23;7.45;;;;;;;;;;6339229;28;20440;-69
2021/12/06 15:13:58;;;;;;;13.68;7.35;;;;;;;;;;6338119;28;20043;-68
2021/12/06 15:17:02;;;;;;;15.38;8.00;;;;;;;;;;6322072;28;20040;-68
2021/12/06 15:20:06;;;;;;;14.63;7.82;;;;;;;;;;6338228;28;20039;-69
2021/12/06 15:23:14;;;;;;;15.35;8.05;;;;;;;;;;6335375;28;20052;-69
2021/12/06 15:26:19;;;;;;;17.50;9.38;;;;;;;;;;6338423;28;20047;-68
2021/12/06 15:29:24;;;;;;;16.73;8.93;;;;;;;;;;6336830;28;20051;-69
2021/12/06 15:32:27;;;;;;;18.00;9.23;;;;;;;;;;6336924;28;20048;-68
2021/12/06 15:35:31;;;;;;;13.75;8.73;;;;;;;;;;6336694;28;20047;-69
2021/12/06 15:38:38;;;;;;;17.48;9.20;;;;;;;;;;6337144;28;20757;-69
2021/12/06 15:41:42;;;;;;;17.42;8.57;;;;;;;;;;6337330;28;20482;-68
2021/12/06 15:44:48;;;;;;;18.07;9.40;;;;;;;;;;6336750;28;20655;-69
2021/12/06 15:47:52;;;;;;;19.08;10.65;;;;;;;;;;6337319;28;20156;-69
2021/12/06 15:50:55;;;;;;;19.73;11.10;;;;;;;;;;6337781;28;20062;-68
2021/12/06 15:54:07;;;;;;;20.08;11.38;;;;;;;;;;6337616;28;20040;-69
2021/12/06 15:57:14;;;;;;;23.50;12.38;;;;;;;;;;6336087;28;20062;-68
2021/12/06 16:00:19;;;;;;;20.80;10.48;;;;;;;;;;6336991;28;20058;-69
2021/12/06 16:03:25;;;;;;;23.70;11.63;;;;;;;;;;6336727;28;20513;-68
2021/12/06 16:06:31;;;;;;;24.92;12.98;;;;;;;;;;6334289;28;20389;-68
2021/12/06 16:09:37;;;;;;;21.00;11.80;;;;;;;;;;6335943;28;20052;-69
2021/12/06 16:12:49;;;;;;;21.77;12.53;;;;;;;;;;6335776;28;20044;-68
2021/12/06 16:15:57;;;;;;;21.17;11.60;;;;;;;;;;6334907;28;20051;-67
2021/12/06 16:19:00;;;;;;;23.15;12.32;;;;;;;;;;6320297;28;20126;-67
2021/12/06 16:22:05;;;;;;;20.27;10.75;;;;;;;;;;6337356;28;20058;-67
2021/12/06 16:25:09;;;;;;;22.75;11.80;;;;;;;;;;6337019;28;20047;-67
2021/12/06 16:28:13;;;;;;;22.48;11.48;;;;;;;;;;6335555;27;20052;-67
2021/12/06 16:31:16;;;;;;;21.63;11.30;;;;;;;;;;6334208;28;20122;-67
2021/12/06 16:34:22;;;;;;;22.45;12.25;;;;;;;;;;6336466;28;20498;-68
2021/12/06 16:37:29;;;;;;;23.35;12.52;;;;;;;;;;6334554;28;20063;-67
2021/12/06 16:40:38;;;;;;;23.45;12.63;;;;;;;;;;6337464;28;20397;-67
2021/12/06 16:43:49;;;;;;;23.23;12.55;;;;;;;;;;6336140;28;20118;-67
2021/12/06 16:46:54;;;;;;;21.08;12.23;;;;;;;;;;6336400;28;20074;-67
2021/12/06 16:50:06;;;;;;;23.77;13.30;;;;;;;;;;6336072;28;20047;-67
2021/12/06 16:53:11;;;;;;;22.25;12.30;;;;;;;;;;6337025;28;20134;-67
2021/12/06 16:56:16;;;;;;;24.38;13.57;;;;;;;;;;6336350;28;20047;-67
2021/12/06 16:59:19;;;;;;;23.77;13.27;;;;;;;;;;6335160;28;20103;-67
2021/12/06 17:02:23;;;;;;;22.77;12.13;;;;;;;;;;6336319;28;20045;-67
2021/12/06 17:05:28;;;;;;;23.38;12.10;;;;;;;;;;6333929;28;20062;-67
2021/12/06 17:08:33;;;;;;;24.65;13.25;;;;;;;;;;6335736;28;20043;-67
2021/12/06 17:11:40;;;;;;;23.70;12.60;;;;;;;;;;6336679;28;20044;-67
2021/12/06 17:14:46;;;;;;;23.20;13.23;;;;;;;;;;6336173;28;20047;-67
2021/12/06 17:17:50;;;;;;;24.45;13.38;;;;;;;;;;6336239;28;20247;-67
2021/12/06 17:20:58;;;;;;;26.50;14.47;;;;;;;;;;6336119;28;20047;-67
2021/12/06 17:24:01;;;;;;;26.73;14.65;;;;;;;;;;6341909;28;20035;-66
2021/12/06 17:27:08;;;;;;;25.92;14.43;;;;;;;;;;6339223;28;20047;-66
2021/12/06 17:30:13;;;;;;;24.42;13.75;;;;;;;;;;6341118;28;20434;-67
2021/12/06 17:33:22;;;;;;;;;;;;;;;;;;6341660;28;20055;-67
2021/12/06 17:36:29;;;;;;;26.08;14.20;;;;;;;;;;6340837;28;19962;-67
2021/12/06 17:39:33;;;;;;;26.30;14.23;;;;;;;;;;6340653;28;20439;-67
2021/12/06 17:42:53;;;;;;;24.10;13.25;;;;;;;;;;6340078;28;20043;-67
2021/12/06 17:45:57;;;;;;;26.73;14.32;;;;;;;;;;6339500;28;20055;-67
2021/12/06 17:49:02;;;;;;;26.83;14.50;;;;;;;;;;6340219;28;20066;-68
2021/12/06 17:52:09;;;;;;;26.08;14.38;;;;;;;;;;6339076;28;20117;-67
2021/12/06 17:55:12;;;;;;;25.42;13.70;;;;;;;;;;6339683;28;20047;-68
2021/12/06 17:58:25;;;;;;;25.08;14.55;;;;;;;;;;6340637;28;20048;-67
2021/12/06 18:01:30;;;;;;;27.13;15.35;;;;;;;;;;6337835;28;20059;-66
2021/12/06 18:04:43;;;;;;;26.77;14.20;;;;;;;;;;6339445;28;20044;-66
2021/12/06 18:07:48;;;;;;;25.08;15.25;;;;;;;;;;6339139;28;20047;-66
2021/12/06 18:10:52;;;;;;;25.35;14.52;;;;;;;;;;6339097;28;20476;-67